Maymont, Canada
Current Conditions -  °F | °C
As of 2:00 PM on Wednesday 28 Jan 2015 (Local Time) from CYQW Reporting Station
Overcast Overcast  
Wind Chill: 13°   Ceiling: 1600
Heat Index: 25°   Visibility: 9mi
Dew Point: 21°   Wind: 13mph
Humidity: 86%   Direction: 330°NNW
Pressure: 30.18"   Gusts: 20mph
Location:  52.57°N, 107.72°W
Report Text: CYQW 282000Z AUTO 33011G17KT 9SM OVC016 M04/M06 A3018 RMK SLP253
Loading
Personal Weather Stations






























Interactive Weather Map New forecast layout! Learn more

10-Day Weather Forecast

Advertisements
Track Severe Weather on mobile